Time;durP1;ratioP1;P1;durP2;ratioP2;P2;SDS_P1;SDS_P2;PMS_P1;PMS_P2;Temp;Humidity;BMP_temperature;BMP_pressure;BME280_temperature;BME280_humidity;BME280_pressure;Samples;Min_cycle;Max_cycle;Signal;HPM_P1;HPM_P2
2021/08/28 00:02:15;;;;;;;18.07;9.53;;;;;;;16.93;82.62;98699.27;1889961;76;22574;-61
2021/08/28 00:04:52;;;;;;;13.53;7.80;;;;;;;16.98;82.52;98701.34;1870621;76;22279;-60
2021/08/28 00:07:28;;;;;;;13.88;8.08;;;;;;;16.97;80.90;98695.73;1870424;76;22121;-61
2021/08/28 00:10:06;;;;;;;12.43;7.58;;;;;;;17.02;80.34;98692.59;1870646;76;22149;-63
2021/08/28 00:12:39;;;;;;;16.23;8.73;;;;;;;17.06;80.42;98694.23;1870914;76;22141;-61
2021/08/28 00:15:14;;;;;;;16.10;8.78;;;;;;;17.06;80.58;98695.53;1889966;76;22163;-61
2021/08/28 00:17:49;;;;;;;27.55;8.38;;;;;;;17.01;80.87;98694.77;1870672;76;22133;-61
2021/08/28 00:20:24;;;;;;;18.73;8.28;;;;;;;17.05;81.03;98700.34;1870684;76;22591;-60
2021/08/28 00:23:05;;;;;;;21.40;8.20;;;;;;;17.05;81.00;98689.92;1852770;76;22182;-63
2021/08/28 00:25:40;;;;;;;14.33;9.95;;;;;;;17.05;80.33;98686.01;1890128;76;22120;-61
2021/08/28 00:28:15;;;;;;;17.57;9.98;;;;;;;17.06;81.15;98686.41;1889984;76;22139;-61
2021/08/28 00:31:14;;;;;;;11.70;7.50;;;;;;;17.03;81.43;98685.62;1869798;76;22116;-61
2021/08/28 00:33:49;;;;;;;16.90;7.00;;;;;;;16.99;81.58;98687.86;1870696;76;22132;-62
2021/08/28 00:36:23;;;;;;;18.48;8.83;;;;;;;16.90;81.84;98684.55;1870679;76;22570;-58
2021/08/28 00:39:04;;;;;;;16.00;8.48;;;;;;;16.97;81.90;98680.51;1867531;76;22171;-59
2021/08/28 00:41:39;;;;;;;17.82;8.68;;;;;;;16.95;81.69;98679.25;1889960;76;22547;-57
2021/08/28 00:44:40;;;;;;;17.05;8.90;;;;;;;16.96;81.75;98684.02;1870766;76;22141;-62
2021/08/28 00:47:17;;;;;;;17.57;8.30;;;;;;;16.96;81.41;98683.56;1870704;76;22165;-63
2021/08/28 00:49:51;;;;;;;17.40;8.50;;;;;;;16.97;80.74;98670.97;1887575;76;22583;-61
2021/08/28 00:52:26;;;;;;;22.67;8.30;;;;;;;16.95;79.91;98649.28;1860896;76;22634;-62
2021/08/28 00:55:01;;;;;;;19.40;7.78;;;;;;;16.98;79.31;98647.91;1870672;76;22136;-58
2021/08/28 00:57:36;;;;;;;15.03;7.87;;;;;;;16.99;79.02;98647.45;1870792;76;22172;-60
2021/08/28 01:00:45;;;;;;;14.80;8.05;;;;;;;17.00;79.33;98664.38;1870530;76;22168;-60
2021/08/28 01:03:27;;;;;;;20.52;11.08;;;;;;;16.96;79.75;98672.29;1870727;76;22105;-61
2021/08/28 01:06:48;;;;;;;34.92;15.05;;;;;;;16.92;78.39;98672.80;1870642;76;22145;-61
2021/08/28 01:09:35;;;;;;;24.47;12.35;;;;;;;16.92;79.24;98672.80;1889971;76;22570;-60
2021/08/28 01:12:23;;;;;;;21.07;10.15;;;;;;;16.87;79.52;98653.80;1889936;76;22112;-65
2021/08/28 01:15:03;;;;;;;16.62;8.28;;;;;;;16.91;79.63;98652.82;1870645;76;22145;-63
2021/08/28 01:17:45;;;;;;;12.85;8.03;;;;;;;16.87;79.23;98664.22;1889974;76;22155;-56
2021/08/28 01:20:44;;;;;;;11.73;7.70;;;;;;;16.86;79.05;98665.09;1876539;76;22156;-63
2021/08/28 01:23:20;;;;;;;15.18;8.35;;;;;;;16.92;79.04;98663.68;1885419;76;22107;-63
2021/08/28 01:26:23;;;;;;;10.65;7.55;;;;;;;16.90;79.78;98666.76;1890024;76;22164;-61
2021/08/28 01:29:27;;;;;;;12.47;7.15;;;;;;;16.88;79.61;98668.53;1871229;76;22203;-61
2021/08/28 01:32:23;;;;;;;11.12;7.72;;;;;;;16.83;79.32;98671.66;1870661;76;22178;-63
2021/08/28 01:35:21;;;;;;;10.63;7.28;;;;;;;16.88;79.41;98677.66;1875213;76;22167;-63
2021/08/28 01:37:58;;;;;;;11.93;7.10;;;;;;;16.89;78.72;98679.36;1856385;76;22140;-64
2021/08/28 01:40:33;;;;;;;14.47;7.17;;;;;;;16.93;77.79;98675.81;1870620;76;22105;-62
2021/08/28 01:43:10;;;;;;;12.33;6.42;;;;;;;16.97;78.23;98679.20;1862350;76;22630;-61
2021/08/28 01:45:52;;;;;;;14.58;7.20;;;;;;;16.99;78.31;98692.63;1851572;76;22208;-60
2021/08/28 01:48:27;;;;;;;13.53;7.70;;;;;;;17.00;78.26;98683.94;1858664;76;22191;-61
2021/08/28 01:51:02;;;;;;;14.40;7.22;;;;;;;17.01;78.04;98673.91;1851814;76;22223;-61
2021/08/28 01:53:57;;;;;;;18.90;8.05;;;;;;;16.92;78.44;98668.89;1864399;76;22205;-56
2021/08/28 01:56:33;;;;;;;12.47;7.55;;;;;;;16.98;78.49;98667.45;1840744;76;28033;-63
2021/08/28 01:59:08;;;;;;;15.03;7.22;;;;;;;16.99;78.42;98658.73;1842425;76;22174;-64
2021/08/28 02:01:44;;;;;;;10.90;7.10;;;;;;;16.97;77.83;98650.11;1827445;76;20121;-62
2021/08/28 02:04:18;;;;;;;11.10;7.22;;;;;;;16.90;78.60;98651.12;1889961;76;22135;-65
2021/08/28 02:07:01;;;;;;;13.72;7.17;;;;;;;16.89;79.03;98641.56;1859415;76;22565;-64
2021/08/28 02:09:48;;;;;;;12.05;8.08;;;;;;;16.92;79.04;98635.01;1857841;76;22590;-60
2021/08/28 02:12:39;;;;;;;10.48;7.28;;;;;;;16.92;79.05;98620.67;1870668;76;22175;-62
2021/08/28 02:15:39;;;;;;;11.03;8.05;;;;;;;16.90;79.27;98626.36;1870484;76;22587;-62
2021/08/28 02:18:39;;;;;;;12.07;8.10;;;;;;;16.88;79.71;98632.04;1870467;76;22207;-62
2021/08/28 02:21:17;;;;;;;11.57;6.95;;;;;;;16.87;79.95;98635.09;1873136;76;22190;-57
2021/08/28 02:24:18;;;;;;;14.80;7.78;;;;;;;16.85;79.88;98622.98;1865406;76;22139;-58
2021/08/28 02:27:18;;;;;;;11.40;7.65;;;;;;;16.82;79.82;98624.35;1860339;76;22175;-60
2021/08/28 02:30:14;;;;;;;10.35;7.22;;;;;;;16.87;79.66;98623.37;1870682;76;22547;-60
2021/08/28 02:33:17;;;;;;;11.57;7.22;;;;;;;16.86;79.26;98615.56;1870691;76;22135;-63
2021/08/28 02:36:13;;;;;;;11.03;7.05;;;;;;;16.86;79.36;98610.35;1870689;76;22536;-61
2021/08/28 02:39:11;;;;;;;12.73;7.05;;;;;;;16.88;79.60;98605.97;1889891;76;22116;-58
2021/08/28 02:41:48;;;;;;;10.00;6.53;;;;;;;16.86;79.84;98622.08;1870673;76;22105;-64
2021/08/28 02:44:25;;;;;;;9.08;6.62;;;;;;;16.86;79.88;98627.30;1870663;76;22132;-65
2021/08/28 02:47:02;;;;;;;9.85;7.05;;;;;;;16.83;78.93;98615.18;1870903;76;22116;-64
2021/08/28 02:49:59;;;;;;;12.58;7.28;;;;;;;16.82;79.57;98606.96;1870675;76;22129;-63
2021/08/28 02:52:35;;;;;;;15.75;7.28;;;;;;;16.86;79.45;98607.75;1889952;76;22562;-62
2021/08/28 02:55:11;;;;;;;10.30;6.53;;;;;;;16.85;79.36;98607.34;1874207;76;28356;-64
2021/08/28 02:58:06;;;;;;;10.03;6.83;;;;;;;16.90;79.15;98618.53;1854650;76;27912;-58
2021/08/28 03:00:44;;;;;;;10.08;6.33;;;;;;;16.95;78.69;98620.61;1870780;76;22579;-60
2021/08/28 03:03:19;;;;;;;9.03;5.92;;;;;;;16.96;78.51;98622.31;1870695;76;22136;-63
2021/08/28 03:06:15;;;;;;;9.85;6.10;;;;;;;16.96;78.56;98630.13;1871260;76;22132;-59
2021/08/28 03:09:10;;;;;;;11.33;6.70;;;;;;;16.95;79.00;98633.64;1889967;76;22112;-64
2021/08/28 03:11:46;;;;;;;10.00;6.37;;;;;;;16.92;79.42;98634.56;1873908;76;28332;-60
2021/08/28 03:14:20;;;;;;;10.75;6.12;;;;;;;16.92;79.71;98629.80;1889983;76;22108;-62
2021/08/28 03:16:58;;;;;;;17.35;7.78;;;;;;;16.90;80.23;98631.57;1870771;76;22109;-64
2021/08/28 03:19:53;;;;;;;12.33;6.70;;;;;;;16.88;80.45;98621.61;1870658;76;22144;-59
2021/08/28 03:22:30;;;;;;;15.18;6.62;;;;;;;16.79;81.15;98617.45;1889980;76;22159;-61
2021/08/28 03:25:07;;;;;;;11.20;6.28;;;;;;;16.84;80.98;98617.34;1855108;76;27924;-64
2021/08/28 03:27:42;;;;;;;15.65;6.28;;;;;;;16.89;81.10;98618.11;1870659;76;22112;-64
2021/08/28 03:30:47;;;;;;;12.07;6.42;;;;;;;16.91;80.85;98619.79;1869793;76;22181;-63
2021/08/28 03:33:22;;;;;;;11.53;6.45;;;;;;;16.91;80.90;98614.58;1870730;76;22121;-61
2021/08/28 03:35:58;;;;;;;9.20;6.25;;;;;;;16.91;81.00;98616.33;1854873;76;38223;-61
2021/08/28 03:38:53;;;;;;;8.65;5.35;;;;;;;16.98;80.93;98626.20;1889996;76;22108;-62
2021/08/28 03:41:29;;;;;;;9.98;5.28;;;;;;;16.97;80.65;98629.26;1873951;76;28351;-62
2021/08/28 03:44:23;;;;;;;11.20;5.72;;;;;;;17.03;80.59;98627.81;1870664;76;22586;-61
2021/08/28 03:46:58;;;;;;;10.80;5.78;;;;;;;17.03;80.60;98640.85;1870716;76;22109;-65
2021/08/28 03:49:33;;;;;;;11.05;5.90;;;;;;;17.02;80.69;98636.54;1870683;76;22133;-60
2021/08/28 03:52:08;;;;;;;10.58;5.75;;;;;;;17.00;81.04;98636.16;1870753;76;22137;-62
2021/08/28 03:54:43;;;;;;;10.65;5.70;;;;;;;16.99;81.05;98631.81;1890100;76;22129;-62
2021/08/28 03:57:39;;;;;;;9.53;5.90;;;;;;;17.00;81.12;98637.46;1870465;76;22181;-61
2021/08/28 04:00:14;;;;;;;14.50;6.35;;;;;;;16.93;81.11;98643.23;1889929;76;22140;-65
2021/08/28 04:02:49;;;;;;;14.85;6.50;;;;;;;16.98;81.32;98640.09;1854779;76;38631;-63
2021/08/28 04:05:43;;;;;;;11.95;5.45;;;;;;;17.03;81.44;98627.81;1875941;75;22638;-60
2021/08/28 04:08:24;;;;;;;15.83;5.80;;;;;;;17.02;81.54;98640.45;1869826;76;22156;-63
2021/08/28 04:11:20;;;;;;;13.60;5.55;;;;;;;17.00;81.96;98651.34;1873841;76;28329;-61
2021/08/28 04:14:14;;;;;;;8.73;4.70;;;;;;;17.06;81.63;98638.63;1870680;76;22540;-60
2021/08/28 04:16:48;;;;;;;8.85;4.92;;;;;;;17.07;81.28;98653.37;1870645;76;22133;-63
2021/08/28 04:19:23;;;;;;;7.25;4.17;;;;;;;17.05;80.97;98663.00;1870659;76;22141;-59
2021/08/28 04:21:58;;;;;;;8.30;4.45;;;;;;;17.02;80.69;98650.88;1870708;76;22571;-64
2021/08/28 04:24:33;;;;;;;9.33;4.25;;;;;;;17.03;80.89;98640.00;1889967;76;22139;-64
2021/08/28 04:27:09;;;;;;;7.30;4.58;;;;;;;17.04;81.31;98641.25;1870469;76;22173;-60
2021/08/28 04:29:45;;;;;;;8.63;5.12;;;;;;;17.02;81.40;98639.15;1870597;76;22137;-66
2021/08/28 04:32:19;;;;;;;10.90;4.50;;;;;;;17.06;81.60;98651.66;1835108;77;22179;-61
2021/08/28 04:35:13;;;;;;;7.62;3.52;;;;;;;17.14;81.78;98653.21;1870863;76;22117;-62
2021/08/28 04:37:48;;;;;;;10.18;4.08;;;;;;;17.53;80.94;98658.49;1870639;76;22137;-61
2021/08/28 04:40:23;;;;;;;9.53;4.47;;;;;;;18.00;79.03;98646.11;1865866;76;22598;-62
2021/08/28 04:42:58;;;;;;;10.25;5.45;;;;;;;18.48;76.89;98649.30;1859603;76;22163;-61
2021/08/28 04:45:34;;;;;;;34.38;23.83;;;;;;;18.87;74.35;98653.46;1844978;76;22194;-61
2021/08/28 04:48:09;;;;;;;46.80;34.30;;;;;;;18.76;74.11;98658.14;1866948;76;22178;-62
2021/08/28 04:50:50;;;;;;;18.32;12.00;;;;;;;18.68;74.23;98642.23;1861211;76;22228;-65
2021/08/28 04:53:25;;;;;;;54.48;42.62;;;;;;;18.66;74.31;98651.41;1835000;76;27915;-63
2021/08/28 04:56:00;;;;;;;23.65;16.77;;;;;;;18.54;74.54;98649.12;1864793;76;22175;-62
2021/08/28 04:58:34;;;;;;;29.27;20.95;;;;;;;18.48;74.85;98647.99;1845443;76;22239;-62
2021/08/28 05:01:15;;;;;;;19.30;14.53;;;;;;;18.62;74.69;98647.16;1850716;76;22163;-63
2021/08/28 05:03:51;;;;;;;15.55;10.88;;;;;;;18.60;74.72;98645.91;1843870;76;27971;-66
2021/08/28 05:06:27;;;;;;;10.58;7.20;;;;;;;18.72;74.00;98651.23;1834902;77;22187;-62
2021/08/28 05:09:03;;;;;;;10.60;7.20;;;;;;;18.53;73.85;98657.88;1843106;76;22187;-61
2021/08/28 05:11:38;;;;;;;9.03;5.67;;;;;;;18.41;74.48;98663.80;1845783;76;28002;-63
2021/08/28 05:14:21;;;;;;;7.17;5.00;;;;;;;18.32;74.89;98664.48;1860867;76;22234;-62
2021/08/28 05:17:02;;;;;;;12.40;5.33;;;;;;;18.24;75.42;98662.06;1852686;76;22156;-59
2021/08/28 05:19:37;;;;;;;8.10;5.08;;;;;;;18.22;75.50;98657.35;1851950;76;22202;-59
2021/08/28 05:22:11;;;;;;;7.53;4.70;;;;;;;18.36;75.24;98666.98;1853426;76;22258;-58
2021/08/28 05:24:46;;;;;;;7.65;4.65;;;;;;;18.33;74.97;98663.15;1859645;76;22174;-62
2021/08/28 05:27:21;;;;;;;8.33;4.60;;;;;;;18.25;74.90;98661.19;1856174;76;22188;-62
2021/08/28 05:29:56;;;;;;;10.58;5.10;;;;;;;18.21;74.88;98655.16;1870739;76;22138;-63
2021/08/28 05:32:30;;;;;;;7.60;4.58;;;;;;;18.38;74.86;98663.04;1889960;76;22611;-63
2021/08/28 05:35:07;;;;;;;7.00;4.12;;;;;;;18.33;74.61;98648.78;1869465;76;22135;-62
2021/08/28 05:38:06;;;;;;;36.50;26.48;;;;;;;18.46;74.31;98656.31;1853185;76;22179;-63
2021/08/28 05:40:40;;;;;;;51.50;34.98;;;;;;;18.63;73.41;98661.96;1851863;76;22155;-64
2021/08/28 05:43:16;;;;;;;53.13;40.30;;;;;;;18.63;73.03;98654.12;1836736;76;28030;-65
2021/08/28 05:45:51;;;;;;;48.48;34.03;;;;;;;18.86;72.58;98660.06;1852107;76;22569;-66
2021/08/28 05:48:26;;;;;;;31.70;22.37;;;;;;;18.85;72.23;98663.13;1866215;76;22164;-64
2021/08/28 05:51:00;;;;;;;28.02;17.65;;;;;;;18.71;72.66;98666.98;1853280;76;22227;-65
2021/08/28 05:53:35;;;;;;;16.62;11.33;;;;;;;18.92;71.57;98669.03;1862234;76;22657;-64
2021/08/28 05:56:10;;;;;;;13.13;8.83;;;;;;;19.01;71.53;98658.33;1852888;76;22155;-64
2021/08/28 05:58:44;;;;;;;12.50;7.67;;;;;;;19.15;70.67;98658.38;1853729;76;22146;-63
2021/08/28 06:01:20;;;;;;;10.20;5.97;;;;;;;19.23;70.65;98662.51;1855846;76;22153;-61
2021/08/28 06:03:55;;;;;;;7.70;5.60;;;;;;;19.54;69.76;98662.91;1868287;76;22764;-63
2021/08/28 06:06:30;;;;;;;8.93;5.60;;;;;;;19.76;69.13;98667.50;1868643;76;22252;-63
2021/08/28 06:09:05;;;;;;;8.93;4.97;;;;;;;19.98;68.51;98671.16;1885181;76;22261;-64
2021/08/28 06:11:39;;;;;;;9.35;5.83;;;;;;;20.20;67.81;98671.77;1855210;76;22160;-63
2021/08/28 06:14:15;;;;;;;11.43;5.90;;;;;;;20.39;67.10;98678.97;1853904;76;22617;-65
2021/08/28 06:16:51;;;;;;;9.73;6.50;;;;;;;20.47;66.99;98677.41;1854557;76;38253;-62
2021/08/28 06:19:27;;;;;;;9.50;6.05;;;;;;;20.22;67.66;98675.20;1889957;76;22135;-66
2021/08/28 06:22:21;;;;;;;9.55;6.15;;;;;;;20.18;68.21;98678.84;1870560;76;22198;-63
2021/08/28 06:24:56;;;;;;;8.28;5.53;;;;;;;20.27;68.17;98675.44;1889962;76;22567;-60
2021/08/28 06:27:31;;;;;;;9.28;6.25;;;;;;;20.43;67.86;98679.74;1852746;76;22231;-62
2021/08/28 06:30:09;;;;;;;9.80;6.10;;;;;;;20.65;67.44;98677.27;1862566;76;22172;-64
2021/08/28 06:33:04;;;;;;;9.63;6.50;;;;;;;21.06;66.36;98671.45;1841640;76;27980;-63
2021/08/28 06:35:39;;;;;;;9.50;6.08;;;;;;;21.58;64.90;98674.81;1847953;76;28018;-61
2021/08/28 06:38:14;;;;;;;10.68;6.30;;;;;;;21.94;63.49;98672.97;1854294;76;22293;-63
2021/08/28 06:41:26;;;;;;;8.53;5.90;;;;;;;22.11;62.65;98675.31;1846443;76;22155;-61
2021/08/28 06:44:01;;;;;;;11.73;6.15;;;;;;;22.47;62.14;98693.61;1868458;75;22595;-61
2021/08/28 06:46:36;;;;;;;7.65;5.00;;;;;;;23.08;60.54;98694.95;1855569;76;22201;-63
2021/08/28 06:49:12;;;;;;;10.18;5.53;;;;;;;23.34;59.08;98699.50;1854272;76;28107;-62
2021/08/28 06:51:47;;;;;;;12.30;4.90;;;;;;;24.10;56.69;98700.83;1870038;76;22273;-60
2021/08/28 06:54:21;;;;;;;6.08;4.20;;;;;;;23.83;56.87;98703.84;1870291;76;22172;-62
2021/08/28 06:56:57;;;;;;;14.47;11.08;;;;;;;23.47;57.67;98713.81;1854459;76;28325;-62
2021/08/28 06:59:32;;;;;;;58.28;46.68;;;;;;;23.18;58.55;98719.94;1861471;76;22223;-63
2021/08/28 07:02:07;;;;;;;60.23;40.67;;;;;;;22.76;59.68;98710.31;1870064;76;22228;-64
2021/08/28 07:04:42;;;;;;;84.10;67.22;;;;;;;22.42;60.84;98723.19;1870302;76;22603;-64
2021/08/28 07:07:16;;;;;;;58.13;45.80;;;;;;;22.16;61.81;98728.13;1870392;76;22167;-60
2021/08/28 07:09:58;;;;;;;19.60;15.60;;;;;;;21.93;62.80;98723.78;1889509;76;22142;-64
2021/08/28 07:12:59;;;;;;;11.97;7.70;;;;;;;21.59;64.04;98740.38;1889346;76;22263;-63
2021/08/28 07:15:54;;;;;;;24.32;18.48;;;;;;;21.15;64.83;98748.55;1870119;76;22180;-63
2021/08/28 07:18:48;;;;;;;24.50;18.67;;;;;;;20.89;65.93;98748.12;1889619;76;22187;-63
2021/08/28 07:21:23;;;;;;;19.55;14.03;;;;;;;20.85;66.21;98744.77;1889464;76;22191;-62
2021/08/28 07:23:58;;;;;;;15.93;11.90;;;;;;;20.99;65.85;98733.34;1870259;76;22167;-64
2021/08/28 11:04:37;;;;;;;2.40;1.20;;;;;;;23.15;52.13;98904.80;1834729;77;22205;-69
2021/08/28 11:07:28;;;;;;;2.25;1.12;;;;;;;23.12;51.60;98908.41;1870442;76;22181;-65
2021/08/28 11:10:24;;;;;;;1.57;0.90;;;;;;;23.03;51.08;98905.33;1870674;76;22153;-66
2021/08/28 11:13:05;;;;;;;2.40;1.17;;;;;;;22.88;51.67;98908.08;1870718;76;22134;-66
2021/08/28 11:15:42;;;;;;;2.10;1.12;;;;;;;22.94;52.06;98907.82;1889953;76;22128;-65
2021/08/28 11:18:43;;;;;;;2.83;1.00;;;;;;;23.13;51.15;98912.78;1889925;76;22594;-67
2021/08/28 11:21:32;;;;;;;2.45;1.00;;;;;;;23.24;51.02;98928.59;1870514;76;22136;-66
2021/08/28 11:24:15;;;;;;;1.90;1.00;;;;;;;23.14;51.31;98922.38;1870726;76;22563;-67
2021/08/28 11:26:56;;;;;;;1.92;1.00;;;;;;;22.91;51.77;98917.16;1870635;76;22152;-66
2021/08/28 11:29:43;;;;;;;5.42;1.00;;;;;;;22.93;51.93;98917.96;1870471;76;22585;-68
2021/08/28 11:32:23;;;;;;;2.00;1.05;;;;;;;22.96;51.88;98915.20;1870679;76;20101;-67
2021/08/28 11:34:59;;;;;;;1.75;0.98;;;;;;;22.99;51.64;98920.37;1889975;76;22148;-70
2021/08/28 11:37:37;;;;;;;2.75;1.32;;;;;;;22.96;51.45;98917.83;1870766;76;22137;-68
2021/08/28 11:40:25;;;;;;;2.35;1.10;;;;;;;22.91;51.79;98911.90;1870663;76;22109;-67
2021/08/28 11:43:00;;;;;;;5.03;1.20;;;;;;;22.90;51.26;98906.25;1870692;76;22149;-68
2021/08/28 11:45:41;;;;;;;4.37;1.22;;;;;;;22.75;51.25;98906.40;1890146;76;22196;-65
2021/08/28 11:48:39;;;;;;;2.00;1.10;;;;;;;22.68;51.76;98895.25;1889907;76;22175;-70
2021/08/28 11:51:22;;;;;;;2.27;1.10;;;;;;;22.66;52.00;98911.55;1870615;76;22569;-67
2021/08/28 11:54:03;;;;;;;1.57;1.00;;;;;;;22.93;51.40;98910.06;1889915;76;22590;-66
2021/08/28 11:56:38;;;;;;;3.12;1.47;;;;;;;23.13;50.77;98908.83;1873991;76;28045;-63
2021/08/28 11:59:38;;;;;;;2.42;1.10;;;;;;;23.33;49.91;98908.44;1870628;76;22136;-65
2021/08/28 12:02:32;;;;;;;2.98;1.32;;;;;;;23.39;49.02;98913.47;1870675;76;22137;-68
2021/08/28 12:05:30;;;;;;;5.42;1.30;;;;;;;23.49;48.86;98912.16;1870581;76;22160;-69
2021/08/28 12:08:06;;;;;;;1.98;1.20;;;;;;;23.62;48.46;98922.55;1889998;76;22155;-66
2021/08/28 12:11:03;;;;;;;2.90;1.30;;;;;;;23.60;48.10;98919.13;1854572;76;28053;-66
2021/08/28 12:13:59;;;;;;;6.53;1.40;;;;;;;23.50;47.91;98922.22;1873956;76;28310;-66
2021/08/28 12:16:37;;;;;;;3.70;1.47;;;;;;;23.57;48.52;98920.58;1870690;76;22141;-67
2021/08/28 12:19:25;;;;;;;1.95;1.07;;;;;;;23.81;48.35;98925.73;1890142;76;22558;-67
2021/08/28 12:22:08;;;;;;;4.55;1.42;;;;;;;24.03;48.05;98923.87;1870570;76;22192;-67
2021/08/28 12:24:44;;;;;;;3.83;1.25;;;;;;;24.25;47.32;98936.95;1889951;76;22140;-63
2021/08/28 12:27:22;;;;;;;4.30;1.22;;;;;;;24.37;46.93;98938.16;1870443;76;22136;-68
2021/08/28 12:29:57;;;;;;;4.72;1.45;;;;;;;24.51;46.83;98926.17;1870666;76;22133;-65
2021/08/28 12:32:51;;;;;;;2.02;1.15;;;;;;;24.54;46.03;98933.93;1870689;76;22555;-69
2021/08/28 12:35:45;;;;;;;3.02;1.40;;;;;;;24.65;46.29;98939.11;1870630;76;22141;-68
2021/08/28 12:38:21;;;;;;;2.52;1.40;;;;;;;24.82;46.12;98939.61;1870612;76;22217;-68
2021/08/28 12:41:00;;;;;;;2.22;1.30;;;;;;;24.88;45.82;98949.89;1870678;76;22109;-68
2021/08/28 12:43:34;;;;;;;4.08;1.25;;;;;;;24.72;45.94;98944.94;1870669;76;22129;-69
2021/08/28 12:46:28;;;;;;;2.85;1.47;;;;;;;24.45;46.36;98933.44;1889970;76;22188;-70
2021/08/28 12:49:23;;;;;;;2.35;1.10;;;;;;;24.45;46.03;98928.60;1870650;76;22204;-66
2021/08/28 12:52:04;;;;;;;3.40;1.50;;;;;;;24.55;45.77;98929.03;1854499;76;28505;-69
2021/08/28 12:54:58;;;;;;;2.72;1.50;;;;;;;24.62;45.77;98932.63;1889967;76;22575;-69
2021/08/28 12:57:33;;;;;;;3.08;1.45;;;;;;;24.77;45.46;98936.33;1870648;76;22556;-67
2021/08/28 13:00:45;;;;;;;2.60;1.60;;;;;;;25.09;45.13;98930.83;1870637;76;22148;-68
2021/08/28 13:03:30;;;;;;;3.00;1.77;;;;;;;25.29;44.28;98935.17;1870518;76;22548;-67
2021/08/28 13:06:05;;;;;;;3.60;1.40;;;;;;;25.34;43.94;98938.44;1870643;76;22220;-65
2021/08/28 13:08:41;;;;;;;3.30;1.10;;;;;;;25.27;43.89;98934.86;1870677;76;22109;-65
2021/08/28 13:11:22;;;;;;;2.62;1.52;;;;;;;25.10;43.84;98939.60;1889965;76;20204;-67
2021/08/28 13:14:04;;;;;;;3.00;1.55;;;;;;;25.08;43.81;98940.14;1870607;76;22148;-69
2021/08/28 13:16:53;;;;;;;3.83;1.50;;;;;;;24.99;44.01;98929.57;1870662;76;22164;-67
2021/08/28 13:19:34;;;;;;;2.92;1.42;;;;;;;24.98;44.15;98923.03;1870404;76;22214;-69
2021/08/28 13:22:14;;;;;;;2.58;1.37;;;;;;;24.80;44.60;98926.95;1870673;76;22137;-68
2021/08/28 13:24:48;;;;;;;2.77;1.65;;;;;;;24.55;44.55;98935.63;1889942;76;22586;-67
2021/08/28 13:27:23;;;;;;;3.22;1.57;;;;;;;24.38;44.93;98937.25;1889996;76;22116;-68
2021/08/28 13:30:18;;;;;;;3.73;1.50;;;;;;;24.49;45.27;98928.86;1874037;76;27864;-68
2021/08/28 13:33:02;;;;;;;2.80;1.50;;;;;;;24.62;44.69;98923.87;1870633;76;22141;-65
2021/08/28 13:36:09;;;;;;;3.92;2.00;;;;;;;24.73;45.09;98925.55;1869813;76;22571;-67
2021/08/28 13:39:00;;;;;;;2.83;1.37;;;;;;;25.11;44.79;98921.49;1870698;76;22218;-64
2021/08/28 13:42:01;;;;;;;2.47;1.30;;;;;;;25.43;43.13;98929.18;1889937;76;22192;-67
2021/08/28 13:44:36;;;;;;;4.00;1.72;;;;;;;25.45;42.47;98924.68;1870659;76;22136;-67
2021/08/28 13:47:17;;;;;;;2.10;1.10;;;;;;;25.41;42.89;98936.32;1890053;76;22140;-66
2021/08/28 13:49:53;;;;;;;2.87;1.12;;;;;;;25.39;42.63;98936.01;1870509;76;22171;-65
2021/08/28 13:52:28;;;;;;;3.52;1.40;;;;;;;25.43;42.68;98930.97;1889893;76;22140;-68
2021/08/28 13:55:05;;;;;;;4.45;1.40;;;;;;;25.45;42.95;98938.36;1870675;76;22156;-67
2021/08/28 13:58:05;;;;;;;4.45;1.90;;;;;;;25.38;42.94;98944.88;1869738;76;22584;-67
2021/08/28 14:00:40;;;;;;;2.20;1.27;;;;;;;25.19;43.09;98947.56;1870637;76;22141;-64
2021/08/28 14:03:15;;;;;;;4.12;1.60;;;;;;;24.85;43.64;98952.66;1854879;76;27859;-68
2021/08/28 14:05:50;;;;;;;2.47;1.30;;;;;;;24.57;44.40;98944.34;1870686;76;22176;-67
2021/08/28 14:08:25;;;;;;;3.30;1.40;;;;;;;24.28;44.97;98945.19;1870411;76;22622;-63
2021/08/28 14:10:59;;;;;;;2.65;1.40;;;;;;;24.12;45.45;98954.26;1870603;76;22140;-66
2021/08/28 14:13:41;;;;;;;3.47;1.32;;;;;;;24.08;45.75;98950.50;1889796;76;22710;-69
2021/08/28 14:16:16;;;;;;;3.47;1.67;;;;;;;24.20;45.72;98951.28;1852517;76;22183;-66
2021/08/28 14:18:58;;;;;;;3.15;1.30;;;;;;;24.32;45.66;98936.66;1889903;76;22139;-69
2021/08/28 14:21:54;;;;;;;2.62;1.20;;;;;;;24.36;44.67;98939.09;1889507;76;20367;-69
2021/08/28 14:24:55;;;;;;;2.08;1.37;;;;;;;24.25;44.58;98947.97;1865524;76;22212;-69
2021/08/28 14:27:49;;;;;;;3.00;1.60;;;;;;;24.03;44.79;98949.37;1870627;76;22556;-68
2021/08/28 14:30:43;;;;;;;3.25;1.70;;;;;;;23.80;44.91;98944.66;1889848;76;22147;-67
2021/08/28 14:33:23;;;;;;;4.33;1.40;;;;;;;23.56;45.40;98945.22;1850132;76;22175;-65
2021/08/28 14:35:54;;;;;;;5.22;2.00;;;;;;;23.35;45.88;98950.91;1870542;76;22193;-69
2021/08/28 14:38:49;;;;;;;3.52;1.85;;;;;;;23.21;46.34;98937.94;1870680;76;22109;-66
2021/08/28 14:41:24;;;;;;;4.17;2.10;;;;;;;23.07;46.37;98938.48;1873848;76;28089;-67
2021/08/28 14:44:02;;;;;;;4.92;1.70;;;;;;;23.02;46.65;98945.24;1889894;76;22156;-64
2021/08/28 14:46:37;;;;;;;3.90;2.05;;;;;;;22.93;47.09;98944.28;1844301;76;28608;-66
2021/08/28 14:49:12;;;;;;;5.70;2.15;;;;;;;22.84;47.46;98947.27;1867298;76;22168;-66
2021/08/28 14:51:47;;;;;;;4.37;2.25;;;;;;;22.70;47.74;98949.98;1889980;76;22218;-70
2021/08/28 14:54:28;;;;;;;3.90;2.10;;;;;;;22.65;47.87;98955.88;1863660;76;22646;-64
2021/08/28 14:57:03;;;;;;;5.55;2.83;;;;;;;22.58;48.36;98962.28;1862536;76;22203;-65
2021/08/28 14:59:38;;;;;;;5.28;2.25;;;;;;;22.65;48.24;98970.81;1850660;76;22608;-71
2021/08/28 15:02:20;;;;;;;5.10;2.10;;;;;;;22.60;48.23;98971.45;1866627;76;22660;-64
2021/08/28 15:05:01;;;;;;;5.87;2.40;;;;;;;22.53;48.39;98972.13;1851850;76;22610;-73
2021/08/28 15:07:36;;;;;;;4.60;2.62;;;;;;;22.50;48.25;98972.24;1860659;76;22187;-68
2021/08/28 15:10:17;;;;;;;8.60;3.02;;;;;;;22.47;48.11;98973.22;1858484;76;22174;-68
2021/08/28 15:12:53;;;;;;;4.53;2.22;;;;;;;22.46;48.17;98977.20;1889883;76;22137;-65
2021/08/28 15:15:28;;;;;;;3.90;2.25;;;;;;;22.45;48.48;98976.82;1854714;76;28077;-66
2021/08/28 15:18:04;;;;;;;5.08;2.02;;;;;;;22.52;48.75;98979.63;1877567;76;22581;-69
2021/08/28 15:20:59;;;;;;;4.45;2.27;;;;;;;22.60;48.23;98984.13;1854604;76;27894;-64
2021/08/28 15:23:36;;;;;;;3.50;1.95;;;;;;;22.64;48.10;98971.24;1868780;76;22172;-68
2021/08/28 15:26:11;;;;;;;4.42;2.60;;;;;;;22.60;48.08;98978.88;1870501;76;22145;-68
2021/08/28 15:28:46;;;;;;;3.52;2.10;;;;;;;22.48;48.08;98976.70;1854673;76;28346;-65
2021/08/28 15:31:23;;;;;;;4.45;2.20;;;;;;;22.42;48.26;98973.00;1870372;76;22569;-68
2021/08/28 15:33:58;;;;;;;8.83;2.92;;;;;;;22.30;48.53;98971.66;1870648;76;22602;-66
2021/08/28 15:36:33;;;;;;;5.20;2.52;;;;;;;22.13;48.92;98968.29;1864991;76;22172;-64
2021/08/28 15:39:29;;;;;;;4.97;2.20;;;;;;;21.87;49.58;98963.97;1863069;75;22191;-66
2021/08/28 15:42:04;;;;;;;5.75;3.08;;;;;;;21.69;49.91;98965.47;1870620;76;22113;-67
2021/08/28 15:44:45;;;;;;;6.97;3.30;;;;;;;21.57;50.52;98968.05;1869783;76;22190;-64
2021/08/28 15:47:26;;;;;;;7.37;3.27;;;;;;;21.48;50.71;98962.27;1869778;76;22172;-63
2021/08/28 15:50:01;;;;;;;8.60;3.10;;;;;;;21.42;51.08;98960.25;1870669;76;22180;-61
2021/08/28 15:52:36;;;;;;;4.78;3.17;;;;;;;21.39;51.42;98964.73;1870258;76;22142;-61
2021/08/28 15:55:18;;;;;;;5.08;2.92;;;;;;;21.34;51.76;98961.36;1858496;76;22228;-64
2021/08/28 15:57:53;;;;;;;4.83;3.17;;;;;;;21.30;51.89;98964.55;1854120;76;22604;-60
2021/08/28 16:00:34;;;;;;;5.25;3.20;;;;;;;21.24;51.96;98962.11;1859559;76;22164;-63
2021/08/28 16:03:31;;;;;;;4.78;2.95;;;;;;;21.17;52.25;98961.93;1866403;75;22192;-64
2021/08/28 16:06:07;;;;;;;6.87;3.45;;;;;;;21.10;52.27;98965.66;1869347;76;22172;-65
2021/08/28 16:08:43;;;;;;;6.55;3.90;;;;;;;21.02;52.42;98969.38;1873202;76;28495;-63
2021/08/28 16:11:18;;;;;;;5.97;3.98;;;;;;;21.00;52.84;98968.55;1870623;76;22605;-62
2021/08/28 16:13:54;;;;;;;6.92;4.30;;;;;;;20.93;53.19;98970.11;1854766;76;27999;-64
2021/08/28 16:16:32;;;;;;;6.78;3.80;;;;;;;20.90;53.67;98965.81;1870485;76;22137;-64